Main page
METAR-TAF:

METAR-TAF

Airports :

Sri Guru Ram Dass Jee International Airport

Amritsar, India

latitude: 31-38N, longitude: 074-52E, elevation: 229 m

Current weather observation

The report was made 28 minutes ago, at 01:30 UTC
Wind 2 kt from variable directions
Temperature 17°C
Humidity 59%
Pressure 1012 hPa
Visibility: 3500 m
Few clouds at a height of 10000 ft
haze

METAR: VIAR 110130Z VRB02KT 3500 HZ FEW100 17/09 Q1012 NOSIG

Time: 07:28 (01:58 UTC)

Forecast

The report was made 2 hours and 58 minutes ago, at 23:00 UTC
Forecast valid from 11 at 00 UTC to 11 at 09 UTC
Wind 2 kt from variable directions
Visibility: 3500 m
haze
Becoming
from 11 at 04 UTC to 11 at 06 UTC
Wind 8 kt from the North/Northwest
Visibility: 5000 m
Few clouds at a height of 4000 ft
Scattered clouds at a height of 10000 ft
haze

TAF: VIAR 102300Z 1100/1109 VRB02KT 3500 HZ NSC BECMG 1104/1106 34008KT 5000 HZ FEW040 SCT100

Weather observations and forecasts of more than 4000 airports (METAR and TAF reports).

The available stations are represented by yellow and red dots on the map.

Hover mouse over dot to see the name of the station.

Then click to see weather observations and forecasts.

To change the map : click on the green buttons with a black cross to zoom in, on the green button with a dash to zoom out, or on the green arrows for adjacent maps.


METAR-TAF: